sensor_id;sensor_type;location;lat;lon;timestamp;P1;durP1;ratioP1;P2;durP2;ratioP2
59788;SDS011;47353;51.614;5.530;2024-01-15T00:00:32;13.30;;;6.38;;
59788;SDS011;47353;51.614;5.530;2024-01-15T00:02:58;10.57;;;5.82;;
59788;SDS011;47353;51.614;5.530;2024-01-15T00:05:24;9.25;;;5.97;;
59788;SDS011;47353;51.614;5.530;2024-01-15T00:07:49;10.80;;;5.93;;
59788;SDS011;47353;51.614;5.530;2024-01-15T00:10:14;14.93;;;6.90;;
59788;SDS011;47353;51.614;5.530;2024-01-15T00:12:40;12.00;;;6.47;;
59788;SDS011;47353;51.614;5.530;2024-01-15T00:15:05;7.32;;;5.32;;
59788;SDS011;47353;51.614;5.530;2024-01-15T00:17:31;7.75;;;5.43;;
59788;SDS011;47353;51.614;5.530;2024-01-15T00:19:57;9.35;;;5.38;;
59788;SDS011;47353;51.614;5.530;2024-01-15T00:22:23;9.13;;;4.95;;
59788;SDS011;47353;51.614;5.530;2024-01-15T00:24:50;6.78;;;4.55;;
59788;SDS011;47353;51.614;5.530;2024-01-15T00:27:16;9.20;;;5.65;;
59788;SDS011;47353;51.614;5.530;2024-01-15T00:29:41;11.60;;;6.13;;
59788;SDS011;47353;51.614;5.530;2024-01-15T00:32:06;15.25;;;7.80;;
59788;SDS011;47353;51.614;5.530;2024-01-15T00:34:32;21.73;;;8.50;;
59788;SDS011;47353;51.614;5.530;2024-01-15T00:36:57;16.83;;;7.25;;
59788;SDS011;47353;51.614;5.530;2024-01-15T00:39:22;10.88;;;6.22;;
59788;SDS011;47353;51.614;5.530;2024-01-15T00:41:48;10.95;;;5.78;;
59788;SDS011;47353;51.614;5.530;2024-01-15T00:44:14;18.25;;;7.03;;
59788;SDS011;47353;51.614;5.530;2024-01-15T00:46:45;15.20;;;6.63;;
59788;SDS011;47353;51.614;5.530;2024-01-15T00:49:14;12.65;;;6.00;;
59788;SDS011;47353;51.614;5.530;2024-01-15T00:51:40;10.77;;;5.05;;
59788;SDS011;47353;51.614;5.530;2024-01-15T00:54:06;6.70;;;4.22;;
59788;SDS011;47353;51.614;5.530;2024-01-15T00:56:31;9.50;;;4.90;;
59788;SDS011;47353;51.614;5.530;2024-01-15T00:58:56;16.58;;;7.22;;
59788;SDS011;47353;51.614;5.530;2024-01-15T01:01:22;15.63;;;6.63;;
59788;SDS011;47353;51.614;5.530;2024-01-15T01:03:47;13.35;;;5.72;;
59788;SDS011;47353;51.614;5.530;2024-01-15T01:06:13;10.30;;;5.18;;
59788;SDS011;47353;51.614;5.530;2024-01-15T01:08:38;13.27;;;5.28;;
59788;SDS011;47353;51.614;5.530;2024-01-15T01:11:04;10.73;;;5.93;;
59788;SDS011;47353;51.614;5.530;2024-01-15T01:13:31;12.50;;;6.82;;
59788;SDS011;47353;51.614;5.530;2024-01-15T01:15:57;15.98;;;7.95;;
59788;SDS011;47353;51.614;5.530;2024-01-15T01:18:23;20.42;;;8.63;;
59788;SDS011;47353;51.614;5.530;2024-01-15T01:20:48;23.63;;;8.18;;
59788;SDS011;47353;51.614;5.530;2024-01-15T01:23:14;12.75;;;6.00;;
59788;SDS011;47353;51.614;5.530;2024-01-15T01:25:39;21.38;;;7.97;;
59788;SDS011;47353;51.614;5.530;2024-01-15T01:28:04;16.27;;;7.03;;
59788;SDS011;47353;51.614;5.530;2024-01-15T01:30:30;11.15;;;5.32;;
59788;SDS011;47353;51.614;5.530;2024-01-15T01:32:55;21.02;;;6.85;;
59788;SDS011;47353;51.614;5.530;2024-01-15T01:35:21;12.88;;;5.38;;
59788;SDS011;47353;51.614;5.530;2024-01-15T01:37:47;10.23;;;4.70;;
59788;SDS011;47353;51.614;5.530;2024-01-15T01:40:12;13.10;;;5.20;;
59788;SDS011;47353;51.614;5.530;2024-01-15T01:42:38;10.18;;;3.97;;
59788;SDS011;47353;51.614;5.530;2024-01-15T01:45:03;15.40;;;4.80;;
59788;SDS011;47353;51.614;5.530;2024-01-15T01:47:29;11.07;;;4.22;;
59788;SDS011;47353;51.614;5.530;2024-01-15T01:49:55;8.90;;;2.80;;
59788;SDS011;47353;51.614;5.530;2024-01-15T01:52:20;10.48;;;3.25;;
59788;SDS011;47353;51.614;5.530;2024-01-15T01:54:46;17.92;;;4.80;;
59788;SDS011;47353;51.614;5.530;2024-01-15T01:57:12;10.88;;;3.33;;
59788;SDS011;47353;51.614;5.530;2024-01-15T01:59:39;8.10;;;2.70;;
59788;SDS011;47353;51.614;5.530;2024-01-15T02:02:04;5.97;;;2.63;;
59788;SDS011;47353;51.614;5.530;2024-01-15T02:04:31;15.93;;;5.00;;
59788;SDS011;47353;51.614;5.530;2024-01-15T02:06:57;12.07;;;4.15;;
59788;SDS011;47353;51.614;5.530;2024-01-15T02:09:23;7.28;;;2.90;;
59788;SDS011;47353;51.614;5.530;2024-01-15T02:11:49;10.68;;;3.28;;
59788;SDS011;47353;51.614;5.530;2024-01-15T02:14:14;11.50;;;3.90;;
59788;SDS011;47353;51.614;5.530;2024-01-15T02:16:40;9.38;;;3.00;;
59788;SDS011;47353;51.614;5.530;2024-01-15T02:19:06;5.38;;;2.85;;
59788;SDS011;47353;51.614;5.530;2024-01-15T02:21:31;11.95;;;3.83;;
59788;SDS011;47353;51.614;5.530;2024-01-15T02:23:57;17.83;;;4.78;;
59788;SDS011;47353;51.614;5.530;2024-01-15T02:26:23;7.18;;;2.83;;
59788;SDS011;47353;51.614;5.530;2024-01-15T02:28:49;11.02;;;3.42;;
59788;SDS011;47353;51.614;5.530;2024-01-15T02:31:16;6.72;;;2.88;;
59788;SDS011;47353;51.614;5.530;2024-01-15T02:33:42;7.50;;;2.67;;
59788;SDS011;47353;51.614;5.530;2024-01-15T02:36:08;9.07;;;3.10;;
59788;SDS011;47353;51.614;5.530;2024-01-15T02:38:33;11.25;;;3.85;;
59788;SDS011;47353;51.614;5.530;2024-01-15T02:40:58;8.98;;;3.30;;
59788;SDS011;47353;51.614;5.530;2024-01-15T02:43:24;11.88;;;4.82;;
59788;SDS011;47353;51.614;5.530;2024-01-15T02:45:49;5.97;;;2.47;;
59788;SDS011;47353;51.614;5.530;2024-01-15T02:48:15;9.05;;;2.80;;
59788;SDS011;47353;51.614;5.530;2024-01-15T02:50:40;13.38;;;2.40;;
59788;SDS011;47353;51.614;5.530;2024-01-15T02:53:05;9.38;;;2.45;;
59788;SDS011;47353;51.614;5.530;2024-01-15T02:55:31;7.72;;;2.60;;
59788;SDS011;47353;51.614;5.530;2024-01-15T02:57:56;12.52;;;3.33;;
59788;SDS011;47353;51.614;5.530;2024-01-15T03:00:22;12.85;;;4.32;;
59788;SDS011;47353;51.614;5.530;2024-01-15T03:02:48;12.18;;;4.50;;
59788;SDS011;47353;51.614;5.530;2024-01-15T03:05:15;13.20;;;4.43;;
59788;SDS011;47353;51.614;5.530;2024-01-15T03:07:40;22.25;;;5.30;;
59788;SDS011;47353;51.614;5.530;2024-01-15T03:10:06;21.52;;;6.10;;
59788;SDS011;47353;51.614;5.530;2024-01-15T03:12:32;17.98;;;4.90;;
59788;SDS011;47353;51.614;5.530;2024-01-15T03:14:57;16.25;;;4.03;;
59788;SDS011;47353;51.614;5.530;2024-01-15T03:17:22;8.52;;;2.00;;
59788;SDS011;47353;51.614;5.530;2024-01-15T03:19:48;7.75;;;2.38;;
59788;SDS011;47353;51.614;5.530;2024-01-15T03:22:14;19.33;;;4.22;;
59788;SDS011;47353;51.614;5.530;2024-01-15T03:24:40;11.38;;;3.13;;
59788;SDS011;47353;51.614;5.530;2024-01-15T03:27:05;12.40;;;3.17;;
59788;SDS011;47353;51.614;5.530;2024-01-15T03:29:31;6.75;;;2.33;;
59788;SDS011;47353;51.614;5.530;2024-01-15T03:31:56;6.80;;;1.88;;
59788;SDS011;47353;51.614;5.530;2024-01-15T03:34:22;6.82;;;2.00;;
59788;SDS011;47353;51.614;5.530;2024-01-15T03:36:47;9.20;;;2.53;;
59788;SDS011;47353;51.614;5.530;2024-01-15T03:39:13;10.18;;;2.58;;
59788;SDS011;47353;51.614;5.530;2024-01-15T03:41:38;10.43;;;3.10;;
59788;SDS011;47353;51.614;5.530;2024-01-15T03:44:03;10.43;;;3.17;;
59788;SDS011;47353;51.614;5.530;2024-01-15T03:46:29;16.60;;;4.43;;
59788;SDS011;47353;51.614;5.530;2024-01-15T03:48:54;12.55;;;3.80;;
59788;SDS011;47353;51.614;5.530;2024-01-15T03:51:19;9.82;;;2.92;;
59788;SDS011;47353;51.614;5.530;2024-01-15T03:53:45;14.50;;;3.58;;
59788;SDS011;47353;51.614;5.530;2024-01-15T03:56:11;13.45;;;3.45;;
59788;SDS011;47353;51.614;5.530;2024-01-15T03:58:37;6.97;;;1.83;;
59788;SDS011;47353;51.614;5.530;2024-01-15T04:01:02;10.50;;;2.17;;
59788;SDS011;47353;51.614;5.530;2024-01-15T04:03:28;5.57;;;2.08;;
59788;SDS011;47353;51.614;5.530;2024-01-15T04:05:53;6.47;;;1.88;;
59788;SDS011;47353;51.614;5.530;2024-01-15T04:08:19;7.78;;;1.73;;
59788;SDS011;47353;51.614;5.530;2024-01-15T04:10:44;5.40;;;1.75;;
59788;SDS011;47353;51.614;5.530;2024-01-15T04:13:10;6.78;;;1.70;;
59788;SDS011;47353;51.614;5.530;2024-01-15T04:15:35;14.32;;;2.10;;
59788;SDS011;47353;51.614;5.530;2024-01-15T04:18:02;6.70;;;2.20;;
59788;SDS011;47353;51.614;5.530;2024-01-15T04:20:27;14.63;;;3.50;;
59788;SDS011;47353;51.614;5.530;2024-01-15T04:22:53;13.88;;;3.63;;
59788;SDS011;47353;51.614;5.530;2024-01-15T04:25:18;11.25;;;3.85;;
59788;SDS011;47353;51.614;5.530;2024-01-15T04:27:43;12.90;;;3.63;;
59788;SDS011;47353;51.614;5.530;2024-01-15T04:30:09;11.77;;;2.70;;
59788;SDS011;47353;51.614;5.530;2024-01-15T04:32:35;15.18;;;4.20;;
59788;SDS011;47353;51.614;5.530;2024-01-15T04:35:01;13.30;;;4.15;;
59788;SDS011;47353;51.614;5.530;2024-01-15T04:37:26;16.17;;;3.70;;
59788;SDS011;47353;51.614;5.530;2024-01-15T04:39:51;11.65;;;3.60;;
59788;SDS011;47353;51.614;5.530;2024-01-15T04:42:19;19.85;;;5.90;;
59788;SDS011;47353;51.614;5.530;2024-01-15T04:44:45;20.95;;;5.10;;
59788;SDS011;47353;51.614;5.530;2024-01-15T04:47:11;16.50;;;4.45;;
59788;SDS011;47353;51.614;5.530;2024-01-15T04:49:36;15.50;;;5.53;;
59788;SDS011;47353;51.614;5.530;2024-01-15T04:52:02;16.40;;;4.88;;
59788;SDS011;47353;51.614;5.530;2024-01-15T04:54:27;9.00;;;3.20;;
59788;SDS011;47353;51.614;5.530;2024-01-15T04:56:52;10.15;;;3.08;;
59788;SDS011;47353;51.614;5.530;2024-01-15T04:59:18;11.15;;;3.55;;
59788;SDS011;47353;51.614;5.530;2024-01-15T05:01:43;13.15;;;4.18;;
59788;SDS011;47353;51.614;5.530;2024-01-15T05:04:09;11.32;;;3.47;;
59788;SDS011;47353;51.614;5.530;2024-01-15T05:06:34;12.82;;;3.78;;
59788;SDS011;47353;51.614;5.530;2024-01-15T05:08:59;13.85;;;4.20;;
59788;SDS011;47353;51.614;5.530;2024-01-15T05:11:25;7.32;;;2.88;;
59788;SDS011;47353;51.614;5.530;2024-01-15T05:13:51;8.55;;;2.00;;
59788;SDS011;47353;51.614;5.530;2024-01-15T05:16:16;3.45;;;1.70;;
59788;SDS011;47353;51.614;5.530;2024-01-15T05:18:42;4.18;;;1.63;;
59788;SDS011;47353;51.614;5.530;2024-01-15T05:21:08;3.88;;;1.60;;
59788;SDS011;47353;51.614;5.530;2024-01-15T05:23:34;4.40;;;1.55;;
59788;SDS011;47353;51.614;5.530;2024-01-15T05:25:59;3.67;;;1.60;;
59788;SDS011;47353;51.614;5.530;2024-01-15T05:28:25;5.78;;;1.50;;
59788;SDS011;47353;51.614;5.530;2024-01-15T05:30:50;3.58;;;1.50;;
59788;SDS011;47353;51.614;5.530;2024-01-15T05:33:16;2.67;;;1.50;;
59788;SDS011;47353;51.614;5.530;2024-01-15T05:35:42;3.97;;;1.05;;
59788;SDS011;47353;51.614;5.530;2024-01-15T05:38:07;2.83;;;1.15;;
59788;SDS011;47353;51.614;5.530;2024-01-15T05:40:33;4.43;;;1.58;;
59788;SDS011;47353;51.614;5.530;2024-01-15T05:42:58;6.50;;;2.45;;
59788;SDS011;47353;51.614;5.530;2024-01-15T05:45:25;10.52;;;4.32;;
59788;SDS011;47353;51.614;5.530;2024-01-15T05:47:51;13.55;;;4.28;;
59788;SDS011;47353;51.614;5.530;2024-01-15T05:50:17;12.80;;;5.57;;
59788;SDS011;47353;51.614;5.530;2024-01-15T05:52:43;14.20;;;4.10;;
59788;SDS011;47353;51.614;5.530;2024-01-15T05:55:08;5.80;;;2.33;;
59788;SDS011;47353;51.614;5.530;2024-01-15T05:57:34;7.72;;;3.20;;
59788;SDS011;47353;51.614;5.530;2024-01-15T06:00:00;12.68;;;4.07;;
59788;SDS011;47353;51.614;5.530;2024-01-15T06:02:25;5.43;;;3.00;;
59788;SDS011;47353;51.614;5.530;2024-01-15T06:04:51;8.05;;;2.88;;
59788;SDS011;47353;51.614;5.530;2024-01-15T06:07:16;4.65;;;2.10;;
59788;SDS011;47353;51.614;5.530;2024-01-15T06:09:42;6.30;;;3.00;;
59788;SDS011;47353;51.614;5.530;2024-01-15T06:12:07;11.27;;;3.50;;
59788;SDS011;47353;51.614;5.530;2024-01-15T06:14:33;7.20;;;2.95;;
59788;SDS011;47353;51.614;5.530;2024-01-15T06:16:58;5.22;;;2.40;;
59788;SDS011;47353;51.614;5.530;2024-01-15T06:19:24;3.67;;;2.00;;
59788;SDS011;47353;51.614;5.530;2024-01-15T06:21:49;6.60;;;2.17;;
59788;SDS011;47353;51.614;5.530;2024-01-15T06:24:15;9.85;;;2.80;;
59788;SDS011;47353;51.614;5.530;2024-01-15T06:26:42;6.75;;;2.25;;
59788;SDS011;47353;51.614;5.530;2024-01-15T06:29:08;5.88;;;2.20;;
59788;SDS011;47353;51.614;5.530;2024-01-15T06:31:33;9.15;;;2.88;;
59788;SDS011;47353;51.614;5.530;2024-01-15T06:33:59;7.20;;;2.85;;
59788;SDS011;47353;51.614;5.530;2024-01-15T06:36:24;5.22;;;2.63;;
59788;SDS011;47353;51.614;5.530;2024-01-15T06:38:49;5.68;;;2.45;;
59788;SDS011;47353;51.614;5.530;2024-01-15T06:41:15;11.80;;;3.80;;
59788;SDS011;47353;51.614;5.530;2024-01-15T06:43:40;9.57;;;3.58;;
59788;SDS011;47353;51.614;5.530;2024-01-15T06:46:06;8.50;;;4.00;;
59788;SDS011;47353;51.614;5.530;2024-01-15T06:48:31;10.82;;;4.13;;
59788;SDS011;47353;51.614;5.530;2024-01-15T06:50:56;16.00;;;5.22;;
59788;SDS011;47353;51.614;5.530;2024-01-15T06:53:22;14.52;;;5.32;;
59788;SDS011;47353;51.614;5.530;2024-01-15T06:55:47;12.43;;;4.72;;
59788;SDS011;47353;51.614;5.530;2024-01-15T06:58:14;13.43;;;6.00;;
59788;SDS011;47353;51.614;5.530;2024-01-15T07:00:39;15.25;;;6.38;;
59788;SDS011;47353;51.614;5.530;2024-01-15T07:03:05;16.25;;;6.10;;
59788;SDS011;47353;51.614;5.530;2024-01-15T07:05:31;14.23;;;5.68;;
59788;SDS011;47353;51.614;5.530;2024-01-15T07:07:57;13.60;;;4.93;;
59788;SDS011;47353;51.614;5.530;2024-01-15T07:10:22;9.10;;;4.78;;
59788;SDS011;47353;51.614;5.530;2024-01-15T07:12:47;7.75;;;4.38;;
59788;SDS011;47353;51.614;5.530;2024-01-15T07:15:13;8.60;;;4.75;;
59788;SDS011;47353;51.614;5.530;2024-01-15T07:17:39;10.00;;;5.65;;
59788;SDS011;47353;51.614;5.530;2024-01-15T07:20:06;10.90;;;6.05;;
59788;SDS011;47353;51.614;5.530;2024-01-15T07:22:33;15.95;;;6.05;;
59788;SDS011;47353;51.614;5.530;2024-01-15T07:24:59;15.35;;;5.63;;
59788;SDS011;47353;51.614;5.530;2024-01-15T07:27:24;10.23;;;4.93;;
59788;SDS011;47353;51.614;5.530;2024-01-15T07:29:49;9.90;;;4.63;;
59788;SDS011;47353;51.614;5.530;2024-01-15T07:32:15;13.20;;;5.47;;
59788;SDS011;47353;51.614;5.530;2024-01-15T07:34:40;10.27;;;5.30;;
59788;SDS011;47353;51.614;5.530;2024-01-15T07:37:06;7.15;;;4.00;;
59788;SDS011;47353;51.614;5.530;2024-01-15T07:39:31;7.88;;;4.00;;
59788;SDS011;47353;51.614;5.530;2024-01-15T07:41:58;5.20;;;3.83;;
59788;SDS011;47353;51.614;5.530;2024-01-15T07:44:23;4.57;;;3.25;;
59788;SDS011;47353;51.614;5.530;2024-01-15T07:46:49;5.38;;;3.88;;
59788;SDS011;47353;51.614;5.530;2024-01-15T07:49:14;8.23;;;4.82;;
59788;SDS011;47353;51.614;5.530;2024-01-15T07:51:40;7.10;;;4.40;;
59788;SDS011;47353;51.614;5.530;2024-01-15T07:54:05;6.63;;;4.07;;
59788;SDS011;47353;51.614;5.530;2024-01-15T07:56:31;5.55;;;4.00;;
59788;SDS011;47353;51.614;5.530;2024-01-15T07:58:57;7.30;;;4.70;;
59788;SDS011;47353;51.614;5.530;2024-01-15T08:01:22;9.10;;;5.43;;
59788;SDS011;47353;51.614;5.530;2024-01-15T08:03:48;9.57;;;5.75;;
59788;SDS011;47353;51.614;5.530;2024-01-15T08:06:13;11.80;;;7.07;;
59788;SDS011;47353;51.614;5.530;2024-01-15T08:08:39;8.88;;;5.70;;
59788;SDS011;47353;51.614;5.530;2024-01-15T08:11:04;8.05;;;5.93;;
59788;SDS011;47353;51.614;5.530;2024-01-15T08:13:30;9.20;;;5.78;;
59788;SDS011;47353;51.614;5.530;2024-01-15T08:15:55;9.77;;;6.32;;
59788;SDS011;47353;51.614;5.530;2024-01-15T08:18:21;7.80;;;5.50;;
59788;SDS011;47353;51.614;5.530;2024-01-15T08:20:46;7.07;;;5.30;;
59788;SDS011;47353;51.614;5.530;2024-01-15T08:23:12;7.53;;;4.88;;
59788;SDS011;47353;51.614;5.530;2024-01-15T08:25:38;8.18;;;5.13;;
59788;SDS011;47353;51.614;5.530;2024-01-15T08:28:03;7.22;;;5.20;;
59788;SDS011;47353;51.614;5.530;2024-01-15T08:30:29;7.95;;;5.20;;
59788;SDS011;47353;51.614;5.530;2024-01-15T08:32:54;6.95;;;5.18;;
59788;SDS011;47353;51.614;5.530;2024-01-15T08:35:21;9.27;;;5.70;;
59788;SDS011;47353;51.614;5.530;2024-01-15T08:37:50;7.82;;;5.53;;
59788;SDS011;47353;51.614;5.530;2024-01-15T08:40:16;8.50;;;5.18;;
59788;SDS011;47353;51.614;5.530;2024-01-15T08:42:41;6.47;;;5.35;;
59788;SDS011;47353;51.614;5.530;2024-01-15T08:45:08;6.15;;;5.00;;
59788;SDS011;47353;51.614;5.530;2024-01-15T08:47:34;7.25;;;5.43;;
59788;SDS011;47353;51.614;5.530;2024-01-15T08:50:00;6.72;;;5.40;;
59788;SDS011;47353;51.614;5.530;2024-01-15T08:52:26;7.30;;;5.57;;
59788;SDS011;47353;51.614;5.530;2024-01-15T08:54:51;11.10;;;6.82;;
59788;SDS011;47353;51.614;5.530;2024-01-15T08:57:17;9.57;;;7.00;;
59788;SDS011;47353;51.614;5.530;2024-01-15T08:59:42;8.70;;;7.18;;
59788;SDS011;47353;51.614;5.530;2024-01-15T09:02:07;8.98;;;6.93;;
59788;SDS011;47353;51.614;5.530;2024-01-15T09:04:33;8.93;;;6.80;;
59788;SDS011;47353;51.614;5.530;2024-01-15T09:06:59;9.13;;;6.72;;
59788;SDS011;47353;51.614;5.530;2024-01-15T09:09:24;10.45;;;6.00;;
59788;SDS011;47353;51.614;5.530;2024-01-15T09:11:50;8.85;;;7.20;;
59788;SDS011;47353;51.614;5.530;2024-01-15T09:14:16;7.43;;;6.30;;
59788;SDS011;47353;51.614;5.530;2024-01-15T09:16:41;7.53;;;6.72;;
59788;SDS011;47353;51.614;5.530;2024-01-15T09:19:07;12.27;;;7.38;;
59788;SDS011;47353;51.614;5.530;2024-01-15T09:21:32;13.48;;;8.18;;
59788;SDS011;47353;51.614;5.530;2024-01-15T09:23:58;11.38;;;8.52;;
59788;SDS011;47353;51.614;5.530;2024-01-15T09:26:23;14.98;;;9.07;;
59788;SDS011;47353;51.614;5.530;2024-01-15T09:28:49;17.65;;;8.35;;
59788;SDS011;47353;51.614;5.530;2024-01-15T09:31:14;11.20;;;7.90;;
59788;SDS011;47353;51.614;5.530;2024-01-15T09:33:42;8.68;;;6.90;;
59788;SDS011;47353;51.614;5.530;2024-01-15T09:36:08;10.70;;;6.70;;
59788;SDS011;47353;51.614;5.530;2024-01-15T09:38:33;7.45;;;6.30;;
59788;SDS011;47353;51.614;5.530;2024-01-15T09:40:59;8.82;;;6.00;;
59788;SDS011;47353;51.614;5.530;2024-01-15T09:43:25;7.95;;;5.70;;
59788;SDS011;47353;51.614;5.530;2024-01-15T09:45:51;13.93;;;6.55;;
59788;SDS011;47353;51.614;5.530;2024-01-15T09:48:18;11.73;;;4.97;;
59788;SDS011;47353;51.614;5.530;2024-01-15T09:50:44;12.25;;;5.28;;
59788;SDS011;47353;51.614;5.530;2024-01-15T09:53:09;8.60;;;3.08;;
59788;SDS011;47353;51.614;5.530;2024-01-15T09:55:36;6.30;;;2.58;;
59788;SDS011;47353;51.614;5.530;2024-01-15T09:58:03;6.70;;;2.88;;
59788;SDS011;47353;51.614;5.530;2024-01-15T10:00:28;6.97;;;2.72;;
59788;SDS011;47353;51.614;5.530;2024-01-15T10:02:56;6.07;;;1.90;;
59788;SDS011;47353;51.614;5.530;2024-01-15T10:05:21;7.30;;;2.60;;
59788;SDS011;47353;51.614;5.530;2024-01-15T10:07:47;12.07;;;3.55;;
59788;SDS011;47353;51.614;5.530;2024-01-15T10:10:16;9.35;;;3.08;;
59788;SDS011;47353;51.614;5.530;2024-01-15T10:12:41;7.15;;;2.35;;
59788;SDS011;47353;51.614;5.530;2024-01-15T10:15:10;9.57;;;2.20;;
59788;SDS011;47353;51.614;5.530;2024-01-15T10:17:37;7.80;;;2.28;;
59788;SDS011;47353;51.614;5.530;2024-01-15T10:20:07;4.70;;;1.73;;
59788;SDS011;47353;51.614;5.530;2024-01-15T10:22:37;5.15;;;1.70;;
59788;SDS011;47353;51.614;5.530;2024-01-15T10:25:05;6.25;;;1.33;;
59788;SDS011;47353;51.614;5.530;2024-01-15T10:27:30;4.50;;;1.35;;
59788;SDS011;47353;51.614;5.530;2024-01-15T10:29:59;5.45;;;1.60;;
59788;SDS011;47353;51.614;5.530;2024-01-15T10:32:25;4.78;;;1.35;;
59788;SDS011;47353;51.614;5.530;2024-01-15T10:34:52;5.32;;;1.38;;
59788;SDS011;47353;51.614;5.530;2024-01-15T10:37:18;5.90;;;1.65;;
59788;SDS011;47353;51.614;5.530;2024-01-15T10:39:44;5.60;;;1.77;;
59788;SDS011;47353;51.614;5.530;2024-01-15T10:42:11;5.78;;;1.70;;
59788;SDS011;47353;51.614;5.530;2024-01-15T10:44:37;4.70;;;1.73;;
59788;SDS011;47353;51.614;5.530;2024-01-15T10:47:02;4.88;;;1.80;;
59788;SDS011;47353;51.614;5.530;2024-01-15T10:49:29;5.18;;;1.85;;
59788;SDS011;47353;51.614;5.530;2024-01-15T10:51:55;3.63;;;1.90;;
59788;SDS011;47353;51.614;5.530;2024-01-15T10:54:22;3.88;;;2.30;;
59788;SDS011;47353;51.614;5.530;2024-01-15T10:56:48;8.52;;;3.63;;
59788;SDS011;47353;51.614;5.530;2024-01-15T10:59:15;10.13;;;4.93;;
59788;SDS011;47353;51.614;5.530;2024-01-15T11:01:41;9.32;;;4.05;;
59788;SDS011;47353;51.614;5.530;2024-01-15T11:04:08;6.97;;;3.22;;
59788;SDS011;47353;51.614;5.530;2024-01-15T11:06:41;7.50;;;3.22;;
59788;SDS011;47353;51.614;5.530;2024-01-15T11:09:09;6.63;;;3.30;;
59788;SDS011;47353;51.614;5.530;2024-01-15T11:11:35;10.05;;;3.50;;
59788;SDS011;47353;51.614;5.530;2024-01-15T11:14:02;7.47;;;3.60;;
59788;SDS011;47353;51.614;5.530;2024-01-15T11:16:36;9.20;;;3.80;;
59788;SDS011;47353;51.614;5.530;2024-01-15T11:19:19;8.02;;;2.97;;
59788;SDS011;47353;51.614;5.530;2024-01-15T11:21:44;4.00;;;2.15;;
59788;SDS011;47353;51.614;5.530;2024-01-15T11:24:10;8.82;;;3.33;;
59788;SDS011;47353;51.614;5.530;2024-01-15T11:29:10;6.95;;;2.63;;
59788;SDS011;47353;51.614;5.530;2024-01-15T11:34:19;8.25;;;3.25;;
59788;SDS011;47353;51.614;5.530;2024-01-15T11:41:51;9.25;;;3.25;;
59788;SDS011;47353;51.614;5.530;2024-01-15T11:44:19;10.32;;;3.33;;
59788;SDS011;47353;51.614;5.530;2024-01-15T11:46:46;7.85;;;3.00;;
59788;SDS011;47353;51.614;5.530;2024-01-15T11:49:22;8.55;;;3.30;;
59788;SDS011;47353;51.614;5.530;2024-01-15T11:52:07;5.53;;;1.83;;
59788;SDS011;47353;51.614;5.530;2024-01-15T11:54:37;3.90;;;1.63;;
59788;SDS011;47353;51.614;5.530;2024-01-15T11:57:09;2.65;;;1.35;;
59788;SDS011;47353;51.614;5.530;2024-01-15T11:59:39;2.13;;;1.02;;
59788;SDS011;47353;51.614;5.530;2024-01-15T12:02:05;3.60;;;1.20;;
59788;SDS011;47353;51.614;5.530;2024-01-15T12:04:32;3.10;;;1.05;;
59788;SDS011;47353;51.614;5.530;2024-01-15T12:06:57;3.50;;;1.40;;
59788;SDS011;47353;51.614;5.530;2024-01-15T12:09:22;1.77;;;1.30;;
59788;SDS011;47353;51.614;5.530;2024-01-15T12:11:51;1.52;;;1.15;;
59788;SDS011;47353;51.614;5.530;2024-01-15T12:14:24;3.40;;;1.30;;
59788;SDS011;47353;51.614;5.530;2024-01-15T12:16:49;2.28;;;1.20;;
59788;SDS011;47353;51.614;5.530;2024-01-15T12:19:15;2.03;;;1.42;;
59788;SDS011;47353;51.614;5.530;2024-01-15T12:21:41;1.30;;;1.20;;
59788;SDS011;47353;51.614;5.530;2024-01-15T12:24:07;2.72;;;1.50;;
59788;SDS011;47353;51.614;5.530;2024-01-15T12:26:33;2.88;;;2.00;;
59788;SDS011;47353;51.614;5.530;2024-01-15T12:29:01;3.33;;;2.20;;
59788;SDS011;47353;51.614;5.530;2024-01-15T12:31:27;3.75;;;2.30;;
59788;SDS011;47353;51.614;5.530;2024-01-15T12:33:53;4.50;;;2.70;;
59788;SDS011;47353;51.614;5.530;2024-01-15T12:36:21;3.03;;;2.58;;
59788;SDS011;47353;51.614;5.530;2024-01-15T12:38:47;3.97;;;2.75;;
59788;SDS011;47353;51.614;5.530;2024-01-15T12:41:12;3.65;;;3.33;;
59788;SDS011;47353;51.614;5.530;2024-01-15T12:43:38;3.53;;;3.00;;
59788;SDS011;47353;51.614;5.530;2024-01-15T12:46:03;4.05;;;3.30;;
59788;SDS011;47353;51.614;5.530;2024-01-15T12:48:29;4.75;;;4.00;;
59788;SDS011;47353;51.614;5.530;2024-01-15T12:50:55;4.53;;;3.33;;
59788;SDS011;47353;51.614;5.530;2024-01-15T12:53:20;5.70;;;3.20;;
59788;SDS011;47353;51.614;5.530;2024-01-15T12:55:46;4.68;;;2.70;;
59788;SDS011;47353;51.614;5.530;2024-01-15T12:58:11;2.78;;;2.55;;
59788;SDS011;47353;51.614;5.530;2024-01-15T13:00:37;3.38;;;3.00;;
59788;SDS011;47353;51.614;5.530;2024-01-15T13:03:02;3.53;;;3.10;;
59788;SDS011;47353;51.614;5.530;2024-01-15T13:05:28;6.03;;;3.60;;
59788;SDS011;47353;51.614;5.530;2024-01-15T13:07:56;5.03;;;2.80;;
59788;SDS011;47353;51.614;5.530;2024-01-15T13:10:21;4.30;;;2.47;;
59788;SDS011;47353;51.614;5.530;2024-01-15T13:12:47;7.80;;;3.97;;
59788;SDS011;47353;51.614;5.530;2024-01-15T13:15:12;7.85;;;4.30;;
59788;SDS011;47353;51.614;5.530;2024-01-15T13:17:38;12.88;;;6.00;;
59788;SDS011;47353;51.614;5.530;2024-01-15T13:20:10;9.25;;;5.45;;
59788;SDS011;47353;51.614;5.530;2024-01-15T13:22:37;6.60;;;4.53;;
59788;SDS011;47353;51.614;5.530;2024-01-15T13:25:04;12.40;;;6.70;;
59788;SDS011;47353;51.614;5.530;2024-01-15T13:27:32;13.15;;;7.40;;
59788;SDS011;47353;51.614;5.530;2024-01-15T13:29:57;9.77;;;6.43;;
59788;SDS011;47353;51.614;5.530;2024-01-15T13:32:25;12.35;;;6.57;;
59788;SDS011;47353;51.614;5.530;2024-01-15T13:34:51;13.07;;;7.18;;
59788;SDS011;47353;51.614;5.530;2024-01-15T13:37:16;9.93;;;5.65;;
59788;SDS011;47353;51.614;5.530;2024-01-15T13:39:42;11.60;;;6.15;;
59788;SDS011;47353;51.614;5.530;2024-01-15T13:42:07;10.60;;;5.75;;
59788;SDS011;47353;51.614;5.530;2024-01-15T13:44:36;9.15;;;4.88;;
59788;SDS011;47353;51.614;5.530;2024-01-15T13:47:02;9.20;;;4.68;;
59788;SDS011;47353;51.614;5.530;2024-01-15T13:49:28;5.78;;;3.30;;
59788;SDS011;47353;51.614;5.530;2024-01-15T13:51:54;6.03;;;2.60;;
59788;SDS011;47353;51.614;5.530;2024-01-15T13:54:19;3.78;;;2.30;;
59788;SDS011;47353;51.614;5.530;2024-01-15T13:56:46;6.70;;;3.88;;
59788;SDS011;47353;51.614;5.530;2024-01-15T13:59:12;10.13;;;4.70;;
59788;SDS011;47353;51.614;5.530;2024-01-15T14:01:38;6.38;;;3.33;;
59788;SDS011;47353;51.614;5.530;2024-01-15T14:04:03;3.08;;;2.33;;
59788;SDS011;47353;51.614;5.530;2024-01-15T14:06:29;4.40;;;2.47;;
59788;SDS011;47353;51.614;5.530;2024-01-15T14:08:55;4.53;;;2.30;;
59788;SDS011;47353;51.614;5.530;2024-01-15T14:11:20;3.08;;;2.20;;
59788;SDS011;47353;51.614;5.530;2024-01-15T14:13:45;4.90;;;2.40;;
59788;SDS011;47353;51.614;5.530;2024-01-15T14:16:12;6.82;;;2.13;;
59788;SDS011;47353;51.614;5.530;2024-01-15T14:18:38;4.93;;;1.85;;
59788;SDS011;47353;51.614;5.530;2024-01-15T14:21:03;3.38;;;1.65;;
59788;SDS011;47353;51.614;5.530;2024-01-15T14:23:28;3.97;;;1.92;;
59788;SDS011;47353;51.614;5.530;2024-01-15T14:25:54;4.72;;;2.35;;
59788;SDS011;47353;51.614;5.530;2024-01-15T14:28:19;4.25;;;1.88;;
59788;SDS011;47353;51.614;5.530;2024-01-15T14:30:45;2.55;;;1.80;;
59788;SDS011;47353;51.614;5.530;2024-01-15T14:33:10;3.97;;;2.00;;
59788;SDS011;47353;51.614;5.530;2024-01-15T14:35:36;4.40;;;1.55;;
59788;SDS011;47353;51.614;5.530;2024-01-15T14:38:01;4.35;;;1.70;;
59788;SDS011;47353;51.614;5.530;2024-01-15T14:40:27;3.65;;;1.50;;
59788;SDS011;47353;51.614;5.530;2024-01-15T14:42:52;4.43;;;1.60;;
59788;SDS011;47353;51.614;5.530;2024-01-15T14:45:18;4.78;;;1.77;;